Overview Statistics Trail Chart Weather Telemetry Raw packets
 

This is the latest recevied weather packets stored in our database for station/object IW1RID-3. If no packets are shown the sender has not sent any weather packets the latest 10 day(s).

<< 4 5 6 7 8 9 10 >>
Time Temp. Humidity Pressure Rain* Wind** Luminosity Snow
1788483415 22.78° C 81% 1076.3 hPa - - - -
1788482210 23.89° C 78% 1076.2 hPa - - - -
1788481005 22.78° C 86% 1076.3 hPa - - - -
1788479801 22.78° C 88% 1076.4 hPa - - - -
1788478596 23.33° C 86% 1076.5 hPa - - - -
1788477392 23.33° C 87% 1076.6 hPa - - - -
1788476188 23.33° C 87% 1076.5 hPa - - - -
1788474989 23.33° C 88% 1076.5 hPa - - - -
1788473778 23.33° C 88% 1076.3 hPa - - - -
1788472573 23.89° C 88% 1076.7 hPa - - - -
1788470164 24.44° C 86% 1076.6 hPa - - - -
1788468960 24.44° C 86% 1076.5 hPa - - - -
1788467755 24.44° C 88% 1076.6 hPa - - - -
1788466550 24.44° C 87% 1076.6 hPa - - - -
1788465346 24.44° C 87% 1076.6 hPa - - - -
1788464141 24.44° C 87% 1076.5 hPa - - - -
1788462936 25° C 86% 1076.3 hPa - - - -
1788461732 25° C 86% 1076.2 hPa - - - -
1788460527 25.56° C 84% 1076 hPa - - - -
1788459323 26.11° C 80% 1075.9 hPa - - - -
1788458118 26.67° C 81% 1075.7 hPa - - - -
1788456914 26.67° C 78% 1075.9 hPa - - - -
1788455708 27.78° C 74% 1076.1 hPa - - - -
1788454504 30° C 65% 1076.4 hPa - - - -
1788453299 28.89° C 68% 1076.5 hPa - - - -

* Rain since midnight (hover to see other rain measurements)
** Current wind speed in m/s (hover to see current wind gust speed)